Newport, Arkansas
Current Conditions -  °F | °C
As of 12:56 AM on Saturday 29 Nov 2014 (Local Time) from KM19 Reporting Station
Clear Clear  
Wind Chill: 41°   Ceiling: Unl
Heat Index: 46°   Visibility: 10mi
Dew Point: 38°   Wind: 10mph
Humidity: 74%   Direction: 200°SSW
Pressure: 30.01"   Gusts: NA
Location:  35.6°N, 91.28°W
Report Text: KM19 290656Z AUTO 20009KT 10SM CLR 08/03 A3001 RMK AO2 T00770033 SLP162
Loading
Personal Weather Stations






























Interactive Weather Map New forecast layout! Learn more

10-Day Weather Forecast

Advertisements
Track Severe Weather on mobile